sensor_id;sensor_type;location;lat;lon;timestamp;pressure;altitude;pressure_sealevel;temperature;humidity
18436;BME280;9346;52.006;4.720;2023-03-26T00:00:24;100595.75;;;9.63;100.00
18436;BME280;9346;52.006;4.720;2023-03-26T00:02:51;100600.19;;;9.64;100.00
18436;BME280;9346;52.006;4.720;2023-03-26T00:05:20;100596.31;;;9.65;100.00
18436;BME280;9346;52.006;4.720;2023-03-26T00:07:46;100596.88;;;9.67;100.00
18436;BME280;9346;52.006;4.720;2023-03-26T00:10:13;100595.78;;;9.68;100.00
18436;BME280;9346;52.006;4.720;2023-03-26T00:12:40;100592.19;;;9.67;100.00
18436;BME280;9346;52.006;4.720;2023-03-26T00:15:08;100589.44;;;9.67;100.00
18436;BME280;9346;52.006;4.720;2023-03-26T00:17:35;100590.00;;;9.69;100.00
18436;BME280;9346;52.006;4.720;2023-03-26T00:20:02;100585.03;;;9.71;100.00
18436;BME280;9346;52.006;4.720;2023-03-26T00:22:31;100584.50;;;9.74;100.00
18436;BME280;9346;52.006;4.720;2023-03-26T00:24:59;100575.97;;;9.76;100.00
18436;BME280;9346;52.006;4.720;2023-03-26T00:27:26;100573.78;;;9.78;100.00
18436;BME280;9346;52.006;4.720;2023-03-26T00:29:53;100574.88;;;9.77;100.00
18436;BME280;9346;52.006;4.720;2023-03-26T00:32:20;100566.06;;;9.75;100.00
18436;BME280;9346;52.006;4.720;2023-03-26T00:34:50;100563.31;;;9.75;100.00
18436;BME280;9346;52.006;4.720;2023-03-26T00:37:18;100557.53;;;9.76;100.00
18436;BME280;9346;52.006;4.720;2023-03-26T00:39:52;100562.22;;;9.76;100.00
18436;BME280;9346;52.006;4.720;2023-03-26T00:42:23;100552.03;;;9.76;100.00
18436;BME280;9346;52.006;4.720;2023-03-26T00:44:50;100555.63;;;9.77;100.00
18436;BME280;9346;52.006;4.720;2023-03-26T00:47:22;100550.94;;;9.77;100.00
18436;BME280;9346;52.006;4.720;2023-03-26T00:49:49;100549.56;;;9.75;100.00
18436;BME280;9346;52.006;4.720;2023-03-26T00:52:16;100546.81;;;9.75;100.00
18436;BME280;9346;52.006;4.720;2023-03-26T00:54:43;100540.78;;;9.78;100.00
18436;BME280;9346;52.006;4.720;2023-03-26T00:57:12;100540.22;;;9.81;100.00
18436;BME280;9346;52.006;4.720;2023-03-26T00:59:39;100534.72;;;9.81;100.00
18436;BME280;9346;52.006;4.720;2023-03-26T01:02:06;100533.59;;;9.82;100.00
18436;BME280;9346;52.006;4.720;2023-03-26T01:04:35;100528.66;;;9.79;100.00
18436;BME280;9346;52.006;4.720;2023-03-26T01:07:08;100523.72;;;9.81;100.00
18436;BME280;9346;52.006;4.720;2023-03-26T01:09:38;100522.06;;;9.80;100.00
18436;BME280;9346;52.006;4.720;2023-03-26T01:12:10;100520.97;;;9.81;100.00
18436;BME280;9346;52.006;4.720;2023-03-26T01:14:41;100521.25;;;9.79;100.00
18436;BME280;9346;52.006;4.720;2023-03-26T01:17:09;100515.19;;;9.77;100.00
18436;BME280;9346;52.006;4.720;2023-03-26T01:19:39;100517.69;;;9.74;100.00
18436;BME280;9346;52.006;4.720;2023-03-26T01:22:15;100509.41;;;9.69;100.00
18436;BME280;9346;52.006;4.720;2023-03-26T01:24:44;100511.63;;;9.67;100.00
18436;BME280;9346;52.006;4.720;2023-03-26T01:27:24;100518.22;;;9.66;100.00
18436;BME280;9346;52.006;4.720;2023-03-26T01:30:02;100505.56;;;9.65;100.00
18436;BME280;9346;52.006;4.720;2023-03-26T01:32:38;100503.09;;;9.63;100.00
18436;BME280;9346;52.006;4.720;2023-03-26T01:35:20;100498.44;;;9.59;100.00
18436;BME280;9346;52.006;4.720;2023-03-26T01:38:00;100487.44;;;9.59;100.00
18436;BME280;9346;52.006;4.720;2023-03-26T01:40:40;100490.19;;;9.59;100.00
18436;BME280;9346;52.006;4.720;2023-03-26T01:43:12;100476.44;;;9.59;100.00
18436;BME280;9346;52.006;4.720;2023-03-26T01:45:43;100476.69;;;9.57;100.00
18436;BME280;9346;52.006;4.720;2023-03-26T01:48:12;100473.66;;;9.54;100.00
18436;BME280;9346;52.006;4.720;2023-03-26T01:50:39;100466.00;;;9.51;100.00
18436;BME280;9346;52.006;4.720;2023-03-26T01:53:06;100461.06;;;9.48;100.00
18436;BME280;9346;52.006;4.720;2023-03-26T01:55:45;100464.59;;;9.48;100.00
18436;BME280;9346;52.006;4.720;2023-03-26T01:58:26;100464.06;;;9.46;100.00
18436;BME280;9346;52.006;4.720;2023-03-26T02:01:01;100459.94;;;9.44;100.00
18436;BME280;9346;52.006;4.720;2023-03-26T02:03:36;100458.28;;;9.43;100.00
18436;BME280;9346;52.006;4.720;2023-03-26T02:06:09;100450.59;;;9.45;100.00
18436;BME280;9346;52.006;4.720;2023-03-26T02:08:41;100456.63;;;9.47;100.00
18436;BME280;9346;52.006;4.720;2023-03-26T02:11:13;100458.31;;;9.48;100.00
18436;BME280;9346;52.006;4.720;2023-03-26T02:13:42;100457.47;;;9.47;100.00
18436;BME280;9346;52.006;4.720;2023-03-26T02:16:11;100455.56;;;9.48;100.00
18436;BME280;9346;52.006;4.720;2023-03-26T02:18:39;100448.94;;;9.49;100.00
18436;BME280;9346;52.006;4.720;2023-03-26T02:21:08;100437.41;;;9.52;100.00
18436;BME280;9346;52.006;4.720;2023-03-26T02:23:36;100436.28;;;9.53;100.00
18436;BME280;9346;52.006;4.720;2023-03-26T02:26:05;100432.44;;;9.54;100.00
18436;BME280;9346;52.006;4.720;2023-03-26T02:28:37;100432.75;;;9.52;100.00
18436;BME280;9346;52.006;4.720;2023-03-26T02:31:05;100430.00;;;9.52;100.00
18436;BME280;9346;52.006;4.720;2023-03-26T02:33:35;100415.41;;;9.52;100.00
18436;BME280;9346;52.006;4.720;2023-03-26T02:36:04;100420.06;;;9.51;100.00
18436;BME280;9346;52.006;4.720;2023-03-26T02:38:32;100425.56;;;9.51;100.00
18436;BME280;9346;52.006;4.720;2023-03-26T02:40:59;100413.78;;;9.51;100.00
18436;BME280;9346;52.006;4.720;2023-03-26T02:43:27;100412.66;;;9.52;100.00
18436;BME280;9346;52.006;4.720;2023-03-26T02:45:56;100413.78;;;9.51;100.00
18436;BME280;9346;52.006;4.720;2023-03-26T02:48:22;100413.50;;;9.47;100.00
18436;BME280;9346;52.006;4.720;2023-03-26T02:50:50;100410.19;;;9.45;100.00
18436;BME280;9346;52.006;4.720;2023-03-26T02:53:18;100411.56;;;9.43;100.00
18436;BME280;9346;52.006;4.720;2023-03-26T02:55:46;100405.50;;;9.41;100.00
18436;BME280;9346;52.006;4.720;2023-03-26T02:58:13;100407.72;;;9.39;100.00
18436;BME280;9346;52.006;4.720;2023-03-26T03:00:41;100410.19;;;9.35;100.00
18436;BME280;9346;52.006;4.720;2023-03-26T03:03:10;100404.97;;;9.34;100.00
18436;BME280;9346;52.006;4.720;2023-03-26T03:05:37;100409.66;;;9.33;100.00
18436;BME280;9346;52.006;4.720;2023-03-26T03:08:07;100399.75;;;9.32;100.00
18436;BME280;9346;52.006;4.720;2023-03-26T03:10:34;100411.56;;;9.33;100.00
18436;BME280;9346;52.006;4.720;2023-03-26T03:13:02;100401.16;;;9.35;100.00
18436;BME280;9346;52.006;4.720;2023-03-26T03:15:31;100394.00;;;9.39;100.00
18436;BME280;9346;52.006;4.720;2023-03-26T03:17:59;100391.75;;;9.41;100.00
18436;BME280;9346;52.006;4.720;2023-03-26T03:20:28;100391.75;;;9.41;100.00
18436;BME280;9346;52.006;4.720;2023-03-26T03:22:59;100384.34;;;9.41;100.00
18436;BME280;9346;52.006;4.720;2023-03-26T03:25:26;100385.19;;;9.42;100.00
18436;BME280;9346;52.006;4.720;2023-03-26T03:27:53;100379.13;;;9.40;100.00
18436;BME280;9346;52.006;4.720;2023-03-26T03:30:20;100375.53;;;9.39;100.00
18436;BME280;9346;52.006;4.720;2023-03-26T03:32:47;100378.28;;;9.39;100.00
18436;BME280;9346;52.006;4.720;2023-03-26T03:35:14;100372.00;;;9.39;100.00
18436;BME280;9346;52.006;4.720;2023-03-26T03:37:42;100373.63;;;9.40;100.00
18436;BME280;9346;52.006;4.720;2023-03-26T03:40:10;100369.78;;;9.41;100.00
18436;BME280;9346;52.006;4.720;2023-03-26T03:42:37;100369.25;;;9.39;100.00
18436;BME280;9346;52.006;4.720;2023-03-26T03:45:05;100367.59;;;9.38;100.00
18436;BME280;9346;52.006;4.720;2023-03-26T03:47:32;100369.81;;;9.36;100.00
18436;BME280;9346;52.006;4.720;2023-03-26T03:49:59;100362.09;;;9.33;100.00
18436;BME280;9346;52.006;4.720;2023-03-26T03:52:26;100356.88;;;9.31;100.00
18436;BME280;9346;52.006;4.720;2023-03-26T03:54:55;100357.16;;;9.30;100.00
18436;BME280;9346;52.006;4.720;2023-03-26T03:57:24;100345.63;;;9.28;100.00
18436;BME280;9346;52.006;4.720;2023-03-26T03:59:51;100348.34;;;9.28;100.00
18436;BME280;9346;52.006;4.720;2023-03-26T04:02:22;100341.50;;;9.30;100.00
18436;BME280;9346;52.006;4.720;2023-03-26T04:04:54;100344.78;;;9.32;100.00
18436;BME280;9346;52.006;4.720;2023-03-26T04:07:23;100340.13;;;9.33;100.00
18436;BME280;9346;52.006;4.720;2023-03-26T04:09:50;100332.16;;;9.31;100.00
18436;BME280;9346;52.006;4.720;2023-03-26T04:12:18;100338.72;;;9.35;100.00
18436;BME280;9346;52.006;4.720;2023-03-26T04:14:45;100332.69;;;9.38;100.00
18436;BME280;9346;52.006;4.720;2023-03-26T04:17:12;100326.38;;;9.38;100.00
18436;BME280;9346;52.006;4.720;2023-03-26T04:19:40;100319.78;;;9.39;100.00
18436;BME280;9346;52.006;4.720;2023-03-26T04:22:08;100317.28;;;9.42;100.00
18436;BME280;9346;52.006;4.720;2023-03-26T04:24:36;100315.91;;;9.45;100.00
18436;BME280;9346;52.006;4.720;2023-03-26T04:27:05;100316.72;;;9.45;100.00
18436;BME280;9346;52.006;4.720;2023-03-26T04:29:38;100302.44;;;9.43;100.00
18436;BME280;9346;52.006;4.720;2023-03-26T04:32:09;100299.69;;;9.43;100.00
18436;BME280;9346;52.006;4.720;2023-03-26T04:34:38;100298.59;;;9.44;100.00
18436;BME280;9346;52.006;4.720;2023-03-26T04:37:23;100288.41;;;9.45;100.00
18436;BME280;9346;52.006;4.720;2023-03-26T04:39:50;100290.63;;;9.48;100.00
18436;BME280;9346;52.006;4.720;2023-03-26T04:42:18;100280.41;;;9.48;100.00
18436;BME280;9346;52.006;4.720;2023-03-26T04:44:48;100274.41;;;9.46;100.00
18436;BME280;9346;52.006;4.720;2023-03-26T04:47:16;100271.94;;;9.45;100.00
18436;BME280;9346;52.006;4.720;2023-03-26T04:49:43;100265.59;;;9.44;100.00
18436;BME280;9346;52.006;4.720;2023-03-26T04:52:12;100266.72;;;9.43;100.00
18436;BME280;9346;52.006;4.720;2023-03-26T04:54:39;100259.28;;;9.44;100.00
18436;BME280;9346;52.006;4.720;2023-03-26T04:57:12;100264.75;;;9.44;100.00
18436;BME280;9346;52.006;4.720;2023-03-26T04:59:42;100256.53;;;9.44;100.00
18436;BME280;9346;52.006;4.720;2023-03-26T05:02:11;100252.97;;;9.43;100.00
18436;BME280;9346;52.006;4.720;2023-03-26T05:04:38;100245.53;;;9.44;100.00
18436;BME280;9346;52.006;4.720;2023-03-26T05:07:05;100239.75;;;9.45;100.00
18436;BME280;9346;52.006;4.720;2023-03-26T05:09:33;100237.00;;;9.45;100.00
18436;BME280;9346;52.006;4.720;2023-03-26T05:12:01;100230.97;;;9.43;100.00
18436;BME280;9346;52.006;4.720;2023-03-26T05:14:28;100243.59;;;9.44;100.00
18436;BME280;9346;52.006;4.720;2023-03-26T05:16:55;100237.00;;;9.45;100.00
18436;BME280;9346;52.006;4.720;2023-03-26T05:19:24;100226.84;;;9.46;100.00
18436;BME280;9346;52.006;4.720;2023-03-26T05:21:51;100227.94;;;9.45;100.00
18436;BME280;9346;52.006;4.720;2023-03-26T05:24:18;100226.28;;;9.44;100.00
18436;BME280;9346;52.006;4.720;2023-03-26T05:26:45;100221.91;;;9.43;100.00
18436;BME280;9346;52.006;4.720;2023-03-26T05:29:13;100210.34;;;9.41;100.00
18436;BME280;9346;52.006;4.720;2023-03-26T05:31:41;100200.75;;;9.38;100.00
18436;BME280;9346;52.006;4.720;2023-03-26T05:34:08;100202.97;;;9.36;100.00
18436;BME280;9346;52.006;4.720;2023-03-26T05:36:37;100199.97;;;9.33;100.00
18436;BME280;9346;52.006;4.720;2023-03-26T05:39:03;100197.50;;;9.31;100.00
18436;BME280;9346;52.006;4.720;2023-03-26T05:41:30;100196.94;;;9.29;100.00
18436;BME280;9346;52.006;4.720;2023-03-26T05:43:57;100191.72;;;9.28;100.00
18436;BME280;9346;52.006;4.720;2023-03-26T05:46:24;100196.97;;;9.24;100.00
18436;BME280;9346;52.006;4.720;2023-03-26T05:48:51;100188.47;;;9.21;100.00
18436;BME280;9346;52.006;4.720;2023-03-26T05:51:19;100190.69;;;9.19;100.00
18436;BME280;9346;52.006;4.720;2023-03-26T05:53:49;100187.66;;;9.15;100.00
18436;BME280;9346;52.006;4.720;2023-03-26T05:56:16;100186.03;;;9.14;100.00
18436;BME280;9346;52.006;4.720;2023-03-26T05:58:42;100189.06;;;9.13;100.00
18436;BME280;9346;52.006;4.720;2023-03-26T06:01:11;100184.91;;;9.10;100.00
18436;BME280;9346;52.006;4.720;2023-03-26T06:03:41;100179.72;;;9.08;100.00
18436;BME280;9346;52.006;4.720;2023-03-26T06:06:10;100183.84;;;9.06;100.00
18436;BME280;9346;52.006;4.720;2023-03-26T06:08:39;100183.31;;;9.04;100.00
18436;BME280;9346;52.006;4.720;2023-03-26T06:11:09;100178.09;;;9.02;100.00
18436;BME280;9346;52.006;4.720;2023-03-26T06:13:37;100178.38;;;9.01;100.00
18436;BME280;9346;52.006;4.720;2023-03-26T06:16:04;100180.28;;;9.00;100.00
18436;BME280;9346;52.006;4.720;2023-03-26T06:18:31;100176.19;;;8.98;100.00
18436;BME280;9346;52.006;4.720;2023-03-26T06:20:59;100175.34;;;8.97;100.00
18436;BME280;9346;52.006;4.720;2023-03-26T06:23:27;100179.75;;;8.98;100.00
18436;BME280;9346;52.006;4.720;2023-03-26T06:25:54;100167.13;;;8.97;100.00
18436;BME280;9346;52.006;4.720;2023-03-26T06:28:23;100165.47;;;8.96;100.00
18436;BME280;9346;52.006;4.720;2023-03-26T06:30:50;100165.75;;;8.95;100.00
18436;BME280;9346;52.006;4.720;2023-03-26T06:33:18;100167.66;;;8.94;100.00
18436;BME280;9346;52.006;4.720;2023-03-26T06:35:45;100170.41;;;8.94;100.00
18436;BME280;9346;52.006;4.720;2023-03-26T06:38:12;100166.88;;;8.94;100.00
18436;BME280;9346;52.006;4.720;2023-03-26T06:40:39;100167.94;;;8.93;100.00
18436;BME280;9346;52.006;4.720;2023-03-26T06:43:06;100171.53;;;8.88;100.00
18436;BME280;9346;52.006;4.720;2023-03-26T06:45:35;100167.97;;;8.88;100.00
18436;BME280;9346;52.006;4.720;2023-03-26T06:48:02;100174.28;;;8.88;100.00
18436;BME280;9346;52.006;4.720;2023-03-26T06:50:29;100166.59;;;8.90;100.00
18436;BME280;9346;52.006;4.720;2023-03-26T06:52:56;100177.03;;;8.93;100.00
18436;BME280;9346;52.006;4.720;2023-03-26T06:55:23;100175.63;;;8.96;100.00
18436;BME280;9346;52.006;4.720;2023-03-26T06:57:52;100179.50;;;8.95;100.00
18436;BME280;9346;52.006;4.720;2023-03-26T07:00:20;100179.22;;;8.96;100.00
18436;BME280;9346;52.006;4.720;2023-03-26T07:02:48;100176.47;;;8.96;100.00
18436;BME280;9346;52.006;4.720;2023-03-26T07:05:15;100181.41;;;8.99;100.00
18436;BME280;9346;52.006;4.720;2023-03-26T07:07:42;100175.63;;;9.01;100.00
18436;BME280;9346;52.006;4.720;2023-03-26T07:10:10;100176.44;;;9.06;100.00
18436;BME280;9346;52.006;4.720;2023-03-26T07:12:37;100166.53;;;9.10;100.00
18436;BME280;9346;52.006;4.720;2023-03-26T07:15:05;100163.75;;;9.16;100.00
18436;BME280;9346;52.006;4.720;2023-03-26T07:17:32;100164.84;;;9.20;100.00
18436;BME280;9346;52.006;4.720;2023-03-26T07:20:02;100170.63;;;9.18;100.00
18436;BME280;9346;52.006;4.720;2023-03-26T07:22:29;100165.41;;;9.22;100.00
18436;BME280;9346;52.006;4.720;2023-03-26T07:24:57;100163.72;;;9.26;100.00
18436;BME280;9346;52.006;4.720;2023-03-26T07:27:35;100163.16;;;9.29;100.00
18436;BME280;9346;52.006;4.720;2023-03-26T07:30:05;100161.75;;;9.31;100.00
18436;BME280;9346;52.006;4.720;2023-03-26T07:32:40;100156.53;;;9.30;100.00
18436;BME280;9346;52.006;4.720;2023-03-26T07:35:18;100154.06;;;9.28;100.00
18436;BME280;9346;52.006;4.720;2023-03-26T07:37:53;100158.47;;;9.29;100.00
18436;BME280;9346;52.006;4.720;2023-03-26T07:40:41;100162.59;;;9.32;100.00
18436;BME280;9346;52.006;4.720;2023-03-26T07:43:19;100163.97;;;9.29;100.00
18436;BME280;9346;52.006;4.720;2023-03-26T07:45:50;100151.59;;;9.32;100.00
18436;BME280;9346;52.006;4.720;2023-03-26T07:48:20;100156.81;;;9.33;100.00
18436;BME280;9346;52.006;4.720;2023-03-26T07:50:52;100148.81;;;9.37;100.00
18436;BME280;9346;52.006;4.720;2023-03-26T07:53:20;100155.38;;;9.41;100.00
18436;BME280;9346;52.006;4.720;2023-03-26T07:55:51;100152.34;;;9.42;100.00
18436;BME280;9346;52.006;4.720;2023-03-26T07:58:38;100147.69;;;9.43;100.00
18436;BME280;9346;52.006;4.720;2023-03-26T08:01:11;100144.66;;;9.44;100.00
18436;BME280;9346;52.006;4.720;2023-03-26T08:04:02;100151.78;;;9.45;100.00
18436;BME280;9346;52.006;4.720;2023-03-26T08:06:37;100147.13;;;9.46;100.00
18436;BME280;9346;52.006;4.720;2023-03-26T08:09:10;100151.50;;;9.52;100.00
18436;BME280;9346;52.006;4.720;2023-03-26T08:11:47;100150.34;;;9.58;100.00
18436;BME280;9346;52.006;4.720;2023-03-26T08:14:33;100154.19;;;9.62;100.00
18436;BME280;9346;52.006;4.720;2023-03-26T08:17:08;100141.78;;;9.64;100.00
18436;BME280;9346;52.006;4.720;2023-03-26T08:19:47;100145.91;;;9.67;100.00
18436;BME280;9346;52.006;4.720;2023-03-26T08:22:21;100142.56;;;9.70;100.00
18436;BME280;9346;52.006;4.720;2023-03-26T08:25:07;100139.53;;;9.71;100.00
18436;BME280;9346;52.006;4.720;2023-03-26T08:27:38;100146.13;;;9.70;100.00
18436;BME280;9346;52.006;4.720;2023-03-26T08:30:10;100144.75;;;9.73;100.00
18436;BME280;9346;52.006;4.720;2023-03-26T08:32:40;100145.56;;;9.73;100.00
18436;BME280;9346;52.006;4.720;2023-03-26T08:35:10;100146.13;;;9.75;100.00
18436;BME280;9346;52.006;4.720;2023-03-26T08:37:39;100141.44;;;9.76;100.00
18436;BME280;9346;52.006;4.720;2023-03-26T08:40:10;100137.31;;;9.73;100.00
18436;BME280;9346;52.006;4.720;2023-03-26T08:43:06;100149.44;;;9.72;100.00
18436;BME280;9346;52.006;4.720;2023-03-26T08:49:11;100151.09;;;9.68;100.00
18436;BME280;9346;52.006;4.720;2023-03-26T08:52:15;100150.81;;;9.70;100.00
18436;BME280;9346;52.006;4.720;2023-03-26T08:55:02;100151.94;;;9.69;100.00
18436;BME280;9346;52.006;4.720;2023-03-26T08:57:58;100152.47;;;9.71;100.00
18436;BME280;9346;52.006;4.720;2023-03-26T09:00:38;100151.91;;;9.74;100.00
18436;BME280;9346;52.006;4.720;2023-03-26T09:03:26;100147.47;;;9.78;100.00
18436;BME280;9346;52.006;4.720;2023-03-26T09:06:26;100148.03;;;9.80;100.00
18436;BME280;9346;52.006;4.720;2023-03-26T09:12:37;100156.78;;;9.87;100.00
18436;BME280;9346;52.006;4.720;2023-03-26T09:24:36;100151.19;;;9.97;100.00
18436;BME280;9346;52.006;4.720;2023-03-26T09:27:08;100154.44;;;9.99;100.00
18436;BME280;9346;52.006;4.720;2023-03-26T09:30:12;100158.31;;;10.03;100.00
18436;BME280;9346;52.006;4.720;2023-03-26T09:33:25;100156.06;;;10.05;100.00
18436;BME280;9346;52.006;4.720;2023-03-26T09:36:15;100152.19;;;10.11;100.00
18436;BME280;9346;52.006;4.720;2023-03-26T09:38:50;100158.53;;;10.11;100.00
18436;BME280;9346;52.006;4.720;2023-03-26T09:41:30;100155.53;;;10.08;100.00
18436;BME280;9346;52.006;4.720;2023-03-26T09:47:35;100163.81;;;9.98;100.00
18436;BME280;9346;52.006;4.720;2023-03-26T09:50:25;100169.63;;;9.96;100.00
18436;BME280;9346;52.006;4.720;2023-03-26T09:53:07;100164.97;;;9.92;100.00
18436;BME280;9346;52.006;4.720;2023-03-26T09:55:53;100167.72;;;9.92;100.00
18436;BME280;9346;52.006;4.720;2023-03-26T10:01:33;100161.50;;;9.76;100.00
18436;BME280;9346;52.006;4.720;2023-03-26T10:04:30;100167.34;;;9.65;100.00
18436;BME280;9346;52.006;4.720;2023-03-26T10:07:04;100169.00;;;9.66;100.00
18436;BME280;9346;52.006;4.720;2023-03-26T10:09:47;100170.66;;;9.62;100.00
18436;BME280;9346;52.006;4.720;2023-03-26T10:12:23;100178.38;;;9.60;100.00
18436;BME280;9346;52.006;4.720;2023-03-26T10:14:59;100186.09;;;9.58;100.00
18436;BME280;9346;52.006;4.720;2023-03-26T10:17:39;100183.94;;;9.50;100.00
18436;BME280;9346;52.006;4.720;2023-03-26T10:20:26;100185.59;;;9.46;100.00
18436;BME280;9346;52.006;4.720;2023-03-26T10:23:12;100194.44;;;9.38;100.00
18436;BME280;9346;52.006;4.720;2023-03-26T10:25:55;100189.50;;;9.35;100.00
18436;BME280;9346;52.006;4.720;2023-03-26T10:28:33;100204.94;;;9.26;100.00
18436;BME280;9346;52.006;4.720;2023-03-26T10:31:25;100202.75;;;9.23;100.00
18436;BME280;9346;52.006;4.720;2023-03-26T10:34:03;100202.47;;;9.19;100.00
18436;BME280;9346;52.006;4.720;2023-03-26T10:36:40;100206.84;;;9.25;100.00
18436;BME280;9346;52.006;4.720;2023-03-26T10:39:33;100220.84;;;9.34;100.00
18436;BME280;9346;52.006;4.720;2023-03-26T10:42:18;100211.50;;;9.35;100.00
18436;BME280;9346;52.006;4.720;2023-03-26T10:45:07;100219.19;;;9.38;100.00
18436;BME280;9346;52.006;4.720;2023-03-26T10:47:52;100218.13;;;9.29;100.00
18436;BME280;9346;52.006;4.720;2023-03-26T10:50:31;100214.56;;;9.18;100.00
18436;BME280;9346;52.006;4.720;2023-03-26T10:53:06;100218.75;;;9.05;100.00
18436;BME280;9346;52.006;4.720;2023-03-26T10:58:11;100227.00;;;8.90;100.00
18436;BME280;9346;52.006;4.720;2023-03-26T11:00:43;100222.34;;;8.81;100.00
18436;BME280;9346;52.006;4.720;2023-03-26T11:03:28;100237.75;;;8.72;100.00
18436;BME280;9346;52.006;4.720;2023-03-26T11:06:05;100238.56;;;8.72;100.00
18436;BME280;9346;52.006;4.720;2023-03-26T11:08:45;100235.81;;;8.77;100.00
18436;BME280;9346;52.006;4.720;2023-03-26T11:11:20;100233.34;;;8.81;100.00
18436;BME280;9346;52.006;4.720;2023-03-26T11:13:57;100244.34;;;8.76;100.00
18436;BME280;9346;52.006;4.720;2023-03-26T11:16:35;100237.50;;;8.73;100.00
18436;BME280;9346;52.006;4.720;2023-03-26T11:19:13;100236.09;;;8.71;100.00
18436;BME280;9346;52.006;4.720;2023-03-26T11:21:46;100243.25;;;8.72;100.00
18436;BME280;9346;52.006;4.720;2023-03-26T11:24:42;100256.16;;;8.71;100.00
18436;BME280;9346;52.006;4.720;2023-03-26T11:27:21;100245.72;;;8.58;100.00
18436;BME280;9346;52.006;4.720;2023-03-26T11:30:03;100250.66;;;8.66;100.00
18436;BME280;9346;52.006;4.720;2023-03-26T11:32:39;100260.56;;;8.67;100.00
18436;BME280;9346;52.006;4.720;2023-03-26T11:35:15;100262.75;;;8.65;100.00
18436;BME280;9346;52.006;4.720;2023-03-26T11:37:45;100274.28;;;8.67;100.00
18436;BME280;9346;52.006;4.720;2023-03-26T11:40:19;100271.00;;;8.60;100.00
18436;BME280;9346;52.006;4.720;2023-03-26T11:42:49;100275.09;;;8.58;100.00
18436;BME280;9346;52.006;4.720;2023-03-26T11:45:18;100273.19;;;8.58;100.00
18436;BME280;9346;52.006;4.720;2023-03-26T11:47:50;100281.44;;;8.63;100.00
18436;BME280;9346;52.006;4.720;2023-03-26T11:50:21;100273.47;;;8.62;100.00
18436;BME280;9346;52.006;4.720;2023-03-26T11:52:51;100285.81;;;8.64;100.00
18436;BME280;9346;52.006;4.720;2023-03-26T11:55:21;100286.63;;;8.60;100.00
18436;BME280;9346;52.006;4.720;2023-03-26T11:57:52;100289.66;;;8.63;100.00
18436;BME280;9346;52.006;4.720;2023-03-26T12:00:20;100289.94;;;8.62;100.00
18436;BME280;9346;52.006;4.720;2023-03-26T12:02:55;100302.25;;;8.59;100.00
18436;BME280;9346;52.006;4.720;2023-03-26T12:05:23;100298.44;;;8.60;100.00
18436;BME280;9346;52.006;4.720;2023-03-26T12:07:55;100304.47;;;8.62;100.00
18436;BME280;9346;52.006;4.720;2023-03-26T12:10:27;100297.88;;;8.58;100.00
18436;BME280;9346;52.006;4.720;2023-03-26T12:12:57;100300.88;;;8.52;100.00
18436;BME280;9346;52.006;4.720;2023-03-26T12:15:25;100297.06;;;8.53;100.00
18436;BME280;9346;52.006;4.720;2023-03-26T12:17:55;100305.28;;;8.58;100.00
18436;BME280;9346;52.006;4.720;2023-03-26T12:20:31;100311.88;;;8.57;100.00
18436;BME280;9346;52.006;4.720;2023-03-26T12:23:01;100306.66;;;8.65;100.00
18436;BME280;9346;52.006;4.720;2023-03-26T12:25:33;100303.66;;;8.72;100.00
18436;BME280;9346;52.006;4.720;2023-03-26T12:28:02;100305.84;;;8.75;100.00
18436;BME280;9346;52.006;4.720;2023-03-26T12:30:31;100301.44;;;8.79;100.00
18436;BME280;9346;52.006;4.720;2023-03-26T12:33:05;100298.97;;;8.82;100.00
18436;BME280;9346;52.006;4.720;2023-03-26T12:35:34;100300.09;;;8.86;100.00
18436;BME280;9346;52.006;4.720;2023-03-26T12:38:18;100293.47;;;8.87;100.00
18436;BME280;9346;52.006;4.720;2023-03-26T12:41:02;100303.63;;;8.87;100.00
18436;BME280;9346;52.006;4.720;2023-03-26T12:43:35;100308.03;;;8.93;100.00
18436;BME280;9346;52.006;4.720;2023-03-26T12:46:19;100308.28;;;8.91;100.00
18436;BME280;9346;52.006;4.720;2023-03-26T12:48:48;100315.19;;;8.94;100.00
18436;BME280;9346;52.006;4.720;2023-03-26T12:51:19;100301.16;;;8.95;100.00
18436;BME280;9346;52.006;4.720;2023-03-26T12:53:57;100313.25;;;8.94;100.00
18436;BME280;9346;52.006;4.720;2023-03-26T12:56:36;100310.22;;;8.96;100.00
18436;BME280;9346;52.006;4.720;2023-03-26T12:59:22;100306.63;;;8.95;100.00
18436;BME280;9346;52.006;4.720;2023-03-26T13:02:00;100317.34;;;8.97;100.00
18436;BME280;9346;52.006;4.720;2023-03-26T13:04:41;100311.03;;;9.01;100.00
18436;BME280;9346;52.006;4.720;2023-03-26T13:07:17;100317.63;;;9.00;100.00
18436;BME280;9346;52.006;4.720;2023-03-26T13:10:01;100322.03;;;9.01;100.00
18436;BME280;9346;52.006;4.720;2023-03-26T13:12:40;100318.19;;;9.13;100.00
18436;BME280;9346;52.006;4.720;2023-03-26T13:15:16;100333.00;;;9.22;100.00
18436;BME280;9346;52.006;4.720;2023-03-26T13:17:56;100321.47;;;9.20;100.00
18436;BME280;9346;52.006;4.720;2023-03-26T13:20:30;100322.00;;;9.17;100.00
18436;BME280;9346;52.006;4.720;2023-03-26T13:23:05;100322.84;;;9.12;100.00
18436;BME280;9346;52.006;4.720;2023-03-26T13:25:43;100333.28;;;9.15;100.00
18436;BME280;9346;52.006;4.720;2023-03-26T13:28:27;100328.06;;;9.19;100.00
18436;BME280;9346;52.006;4.720;2023-03-26T13:31:04;100323.66;;;9.18;100.00
18436;BME280;9346;52.006;4.720;2023-03-26T13:33:40;100337.94;;;9.20;100.00
18436;BME280;9346;52.006;4.720;2023-03-26T13:36:15;100342.34;;;9.26;100.00
18436;BME280;9346;52.006;4.720;2023-03-26T13:38:52;100342.34;;;9.21;100.00
18436;BME280;9346;52.006;4.720;2023-03-26T13:41:32;100364.31;;;9.26;100.00
18436;BME280;9346;52.006;4.720;2023-03-26T13:44:10;100350.56;;;9.31;100.00
18436;BME280;9346;52.006;4.720;2023-03-26T13:46:47;100338.72;;;9.35;100.00
18436;BME280;9346;52.006;4.720;2023-03-26T13:49:15;100350.56;;;9.36;100.00
18436;BME280;9346;52.006;4.720;2023-03-26T13:51:49;100340.66;;;9.40;100.00
18436;BME280;9346;52.006;4.720;2023-03-26T13:54:21;100352.19;;;9.37;100.00